createdAt,value
2022-07-28T00:04:31.604Z,100655.22
2022-07-28T00:09:34.343Z,100655.38
2022-07-28T00:14:38.624Z,100660.28
2022-07-28T00:19:41.348Z,100655.94
2022-07-28T00:24:44.071Z,100658.97
2022-07-28T00:29:51.020Z,100663.19
2022-07-28T00:34:54.280Z,100659.44
2022-07-28T00:39:57.186Z,100658.44
2022-07-28T00:45:01.325Z,100660.56
2022-07-28T00:50:04.147Z,100644.25
2022-07-28T00:55:07.865Z,100638.25
2022-07-28T01:00:13.290Z,100638.53
2022-07-28T01:05:16.113Z,100642.91
2022-07-28T01:10:22.479Z,100644.72
2022-07-28T01:15:31.042Z,100654.19
2022-07-28T01:20:36.835Z,100645.25
2022-07-28T01:25:48.545Z,100645.41
2022-07-28T01:30:54.555Z,100642.03
2022-07-28T01:36:04.694Z,100640.19
2022-07-28T01:41:08.673Z,100643.13
2022-07-28T01:46:13.064Z,100648.91
2022-07-28T01:51:15.871Z,100648.28
2022-07-28T01:56:19.292Z,100652.44
2022-07-28T02:01:23.569Z,100647.91
2022-07-28T02:06:26.427Z,100648.66
2022-07-28T02:11:41.549Z,100647.19
2022-07-28T02:16:48.452Z,100643.72
2022-07-28T02:21:51.324Z,100648.94
2022-07-28T02:26:57.102Z,100650.72
2022-07-28T02:32:03.214Z,100651.66
2022-07-28T02:37:06.739Z,100652.25
2022-07-28T02:42:18.593Z,100654.25
2022-07-28T02:47:24.936Z,100653.91
2022-07-28T02:52:27.825Z,100654.22
2022-07-28T02:57:30.784Z,100660.50
2022-07-28T03:02:36.721Z,100670.44
2022-07-28T03:07:42.465Z,100668.41
2022-07-28T03:12:55.141Z,100670.53
2022-07-28T03:18:00.078Z,100685.47
2022-07-28T03:23:03.164Z,100678.34
2022-07-28T03:28:06.080Z,100685.72
2022-07-28T03:33:10.127Z,100690.88
2022-07-28T03:38:14.473Z,100698.72
2022-07-28T03:43:22.372Z,100695.91
2022-07-28T03:48:30.833Z,100708.72
2022-07-28T03:53:33.642Z,100703.75
2022-07-28T03:58:36.620Z,100714.41
2022-07-28T04:03:43.907Z,100707.53
2022-07-28T04:08:47.140Z,100707.81
2022-07-28T04:13:50.025Z,100716.38
2022-07-28T04:18:54.180Z,100715.97
2022-07-28T04:24:01.642Z,100716.34
2022-07-28T04:29:04.980Z,100703.44
2022-07-28T04:34:09.852Z,100699.16
2022-07-28T04:39:12.639Z,100689.00
2022-07-28T04:44:17.289Z,100692.38
2022-07-28T04:49:21.760Z,100683.47
2022-07-28T04:54:26.811Z,100686.84
2022-07-28T04:59:29.718Z,100686.16
2022-07-28T05:04:36.020Z,100692.97
2022-07-28T05:09:38.819Z,100690.38
2022-07-28T05:14:42.086Z,100689.84
2022-07-28T05:19:46.205Z,100685.38
2022-07-28T05:24:48.972Z,100688.53
2022-07-28T05:29:52.186Z,100689.91
2022-07-28T05:34:56.332Z,100705.72
2022-07-28T05:39:59.145Z,100708.19
2022-07-28T05:50:06.602Z,100698.78
2022-07-28T05:55:09.922Z,100705.03
2022-07-28T06:00:14.510Z,100695.97
2022-07-28T06:05:18.886Z,100696.09
2022-07-28T06:10:22.609Z,100695.63
2022-07-28T06:15:26.558Z,100695.63
2022-07-28T06:20:31.224Z,100700.66
2022-07-28T06:25:34.091Z,100696.47
2022-07-28T06:30:37.034Z,100711.31
2022-07-28T06:35:46.699Z,100697.44
2022-07-28T06:40:54.288Z,100710.28
2022-07-28T06:45:57.141Z,100708.22
2022-07-28T06:51:01.389Z,100703.69
2022-07-28T06:56:05.171Z,100709.69
2022-07-28T07:01:09.083Z,100710.16
2022-07-28T07:06:13.366Z,100711.47
2022-07-28T07:11:16.174Z,100695.53
2022-07-28T07:16:19.433Z,100703.00
2022-07-28T07:21:23.870Z,100705.28
2022-07-28T07:26:29.057Z,100708.34
2022-07-28T07:31:33.127Z,100705.72
2022-07-28T07:36:37.275Z,100700.94
2022-07-28T07:41:40.188Z,100693.50
2022-07-28T07:46:43.068Z,100698.09
2022-07-28T07:51:47.359Z,100692.56
2022-07-28T07:56:50.261Z,100686.63
2022-07-28T08:01:55.083Z,100683.22
2022-07-28T08:06:59.503Z,100678.25
2022-07-28T08:12:03.104Z,100679.94
2022-07-28T08:17:05.883Z,100680.28
2022-07-28T08:22:10.254Z,100680.28
2022-07-28T08:27:13.290Z,100680.16
2022-07-28T08:32:16.058Z,100677.19
2022-07-28T08:37:20.452Z,100677.91
2022-07-28T08:42:26.588Z,100675.81
2022-07-28T08:47:40.582Z,100669.50
2022-07-28T08:52:45.930Z,100675.47
2022-07-28T08:57:48.705Z,100662.25
2022-07-28T09:02:52.413Z,100658.09
2022-07-28T09:07:56.777Z,100662.38
2022-07-28T09:12:59.542Z,100662.38
2022-07-28T09:18:02.749Z,100662.69
2022-07-28T09:23:41.938Z,100654.03
2022-07-28T09:28:30.326Z,100663.69
2022-07-28T09:33:42.270Z,100656.94
2022-07-28T09:38:48.216Z,100661.97
2022-07-28T09:43:54.986Z,100661.63
2022-07-28T09:48:59.611Z,100657.19
2022-07-28T09:54:11.955Z,100653.59
2022-07-28T09:59:16.196Z,100650.72
2022-07-28T10:04:31.226Z,100639.22
2022-07-28T10:09:35.357Z,100632.41
2022-07-28T10:14:38.274Z,100628.91
2022-07-28T10:19:41.311Z,100618.97
2022-07-28T10:24:45.474Z,100622.22
2022-07-28T10:29:48.246Z,100615.44
2022-07-28T10:34:52.465Z,100615.97
2022-07-28T10:40:10.080Z,100624.44
2022-07-28T10:45:13.609Z,100616.28
2022-07-28T10:50:16.563Z,100596.03
2022-07-28T10:55:24.194Z,100607.34
2022-07-28T11:00:27.103Z,100608.31
2022-07-28T11:05:34.943Z,100594.56
2022-07-28T11:10:49.181Z,100594.88
2022-07-28T11:15:52.689Z,100596.56
2022-07-28T11:21:10.299Z,100597.78
2022-07-28T11:26:34.446Z,100594.09
2022-07-28T11:32:13.907Z,100584.53
2022-07-28T11:37:16.697Z,100582.94
2022-07-28T11:42:27.024Z,100580.13
2022-07-28T11:47:31.697Z,100569.78
2022-07-28T11:52:34.419Z,100577.16
2022-07-28T11:57:41.765Z,100558.44
2022-07-28T12:02:44.714Z,100571.94
2022-07-28T12:07:48.870Z,100547.78
2022-07-28T12:12:53.554Z,100558.69
2022-07-28T12:17:56.604Z,100549.69
2022-07-28T12:23:00.909Z,100539.22
2022-07-28T12:28:16.340Z,100546.47
2022-07-28T12:33:26.080Z,100532.41
2022-07-28T12:38:31.831Z,100526.16
2022-07-28T12:43:35.911Z,100514.63
2022-07-28T12:48:41.285Z,100512.50
2022-07-28T12:53:51.630Z,100506.97
2022-07-28T12:59:06.543Z,100503.44
2022-07-28T13:04:09.284Z,100496.03
2022-07-28T13:09:22.292Z,100493.47
2022-07-28T13:14:43.599Z,100483.38
2022-07-28T13:19:47.286Z,100486.69
2022-07-28T13:24:50.455Z,100484.22
2022-07-28T13:29:54.761Z,100478.69
2022-07-28T13:34:57.834Z,100475.56
2022-07-28T13:40:01.674Z,100477.25
2022-07-28T13:45:06.505Z,100469.47
2022-07-28T13:50:10.029Z,100468.13
2022-07-28T13:55:16.008Z,100471.41
2022-07-28T14:00:22.891Z,100464.31
2022-07-28T14:05:32.177Z,100457.00
2022-07-28T14:10:35.675Z,100454.88
2022-07-28T14:15:40.274Z,100448.16
2022-07-28T14:20:43.024Z,100445.59
2022-07-28T14:25:49.421Z,100448.19
2022-07-28T14:30:54.913Z,100430.19
2022-07-28T14:35:57.761Z,100437.06
2022-07-28T14:41:00.510Z,100428.34
2022-07-28T14:46:16.164Z,100433.06
2022-07-28T14:51:19.595Z,100419.69
2022-07-28T14:56:22.636Z,100416.25
2022-07-28T15:01:26.975Z,100407.50
2022-07-28T15:06:29.892Z,100407.72
2022-07-28T15:11:32.773Z,100403.00
2022-07-28T15:16:38.256Z,100418.34
2022-07-28T15:21:46.621Z,100404.44
2022-07-28T15:26:49.757Z,100419.31
2022-07-28T15:31:54.026Z,100407.50
2022-07-28T15:36:56.983Z,100397.56
2022-07-28T15:41:59.967Z,100410.84
2022-07-28T15:47:04.145Z,100402.25
2022-07-28T15:52:07.291Z,100395.88
2022-07-28T15:57:10.119Z,100401.38
2022-07-28T16:02:17.481Z,100399.59
2022-07-28T16:07:28.444Z,100393.03
2022-07-28T16:12:31.164Z,100395.38
2022-07-28T16:17:35.830Z,100388.97
2022-07-28T16:22:40.612Z,100386.34
2022-07-28T16:27:43.437Z,100384.50
2022-07-28T16:32:47.653Z,100382.03
2022-07-28T16:37:50.506Z,100383.69
2022-07-28T16:42:54.021Z,100386.75
2022-07-28T16:47:58.748Z,100382.03
2022-07-28T16:53:04.189Z,100380.22
2022-07-28T16:58:06.963Z,100380.44
2022-07-28T17:03:11.350Z,100379.16
2022-07-28T17:08:14.345Z,100378.16
2022-07-28T17:13:18.678Z,100382.47
2022-07-28T17:18:23.076Z,100384.63
2022-07-28T17:23:25.809Z,100387.72
2022-07-28T17:28:28.605Z,100373.25
2022-07-28T17:33:32.753Z,100373.31
2022-07-28T17:38:35.555Z,100378.44
2022-07-28T17:43:43.669Z,100383.31
2022-07-28T17:48:49.599Z,100376.03
2022-07-28T17:53:52.386Z,100380.97
2022-07-28T17:58:57.668Z,100386.16
2022-07-28T18:04:01.757Z,100390.06
2022-07-28T18:09:07.085Z,100386.50
2022-07-28T18:14:10.640Z,100382.84
2022-07-28T18:19:14.927Z,100380.06
2022-07-28T18:24:18.344Z,100385.81
2022-07-28T18:29:22.282Z,100372.41
2022-07-28T18:34:26.458Z,100382.69
2022-07-28T18:39:30.620Z,100377.00
2022-07-28T18:44:33.621Z,100387.34
2022-07-28T18:49:38.181Z,100383.34
2022-07-28T18:54:41.060Z,100391.84
2022-07-28T18:59:47.694Z,100386.38
2022-07-28T19:04:54.366Z,100398.00
2022-07-28T19:09:57.322Z,100401.78
2022-07-28T19:15:00.059Z,100406.63
2022-07-28T19:20:06.291Z,100402.22
2022-07-28T19:25:09.912Z,100410.25
2022-07-28T19:30:13.180Z,100414.28
2022-07-28T19:35:17.366Z,100424.47
2022-07-28T19:40:20.279Z,100430.88
2022-07-28T19:45:23.172Z,100434.69
2022-07-28T19:50:27.551Z,100436.41
2022-07-28T19:55:32.252Z,100441.44
2022-07-28T20:00:35.039Z,100450.94
2022-07-28T20:05:40.121Z,100443.22
2022-07-28T20:10:43.055Z,100453.59
2022-07-28T20:15:45.861Z,100450.44
2022-07-28T20:20:50.038Z,100447.31
2022-07-28T20:25:52.872Z,100451.56
2022-07-28T20:30:55.690Z,100443.59
2022-07-28T20:35:59.919Z,100445.56
2022-07-28T20:41:02.729Z,100454.13
2022-07-28T20:46:09.638Z,100454.13
2022-07-28T20:51:13.845Z,100453.59
2022-07-28T20:56:16.587Z,100462.59
2022-07-28T21:01:23.160Z,100458.66
2022-07-28T21:06:27.896Z,100460.22
2022-07-28T21:11:35.138Z,100456.75
2022-07-28T21:16:38.417Z,100461.00
2022-07-28T21:21:42.554Z,100469.44
2022-07-28T21:26:45.297Z,100471.63
2022-07-28T21:32:03.815Z,100464.84
2022-07-28T21:37:11.480Z,100476.78
2022-07-28T21:42:14.711Z,100469.81
2022-07-28T21:47:17.459Z,100471.13
2022-07-28T21:52:21.967Z,100473.66
2022-07-28T21:57:25.210Z,100468.41
2022-07-28T22:02:28.194Z,100474.66
2022-07-28T22:07:33.247Z,100483.50
2022-07-28T22:12:36.017Z,100495.31
2022-07-28T22:17:38.788Z,100503.44
2022-07-28T22:22:42.879Z,100490.75
2022-07-28T22:27:45.559Z,100504.28
2022-07-28T22:32:48.335Z,100507.00
2022-07-28T22:37:52.430Z,100506.03
2022-07-28T22:42:55.201Z,100508.00
2022-07-28T22:47:57.947Z,100500.72
2022-07-28T22:53:02.018Z,100499.16
2022-07-28T22:58:05.714Z,100504.03
2022-07-28T23:03:11.762Z,100502.78
2022-07-28T23:08:17.583Z,100507.66
2022-07-28T23:13:20.470Z,100517.78
2022-07-28T23:18:23.277Z,100511.69
2022-07-28T23:23:27.601Z,100514.81
2022-07-28T23:28:30.375Z,100512.56
2022-07-28T23:33:54.493Z,100513.72
2022-07-28T23:38:57.396Z,100515.88
2022-07-28T23:44:00.180Z,100501.81
2022-07-28T23:49:03.444Z,100509.34
2022-07-28T23:54:07.559Z,100495.13
2022-07-28T23:59:13.663Z,100494.44
